Time;durP1;ratioP1;P1;durP2;ratioP2;P2;SDS_P1;SDS_P2;PMS_P1;PMS_P2;Temp;Humidity;BMP_temperature;BMP_pressure;BME280_temperature;BME280_humidity;BME280_pressure;Samples;Min_cycle;Max_cycle;Signal;HPM_P1;HPM_P2
2023/03/29 00:00:58;;;;;;;7.03;2.73;;;;;;;10.91;52.73;97810.59;5048164;28;20453;-71
2023/03/29 00:03:25;;;;;;;4.17;2.93;;;;;;;10.98;53.27;97800.38;5044584;28;20833;-68
2023/03/29 00:05:56;;;;;;;3.37;2.87;;;;;;;11.00;53.83;97802.84;5045718;28;20432;-71
2023/03/29 00:08:24;;;;;;;2.80;2.47;;;;;;;10.97;53.89;97798.72;5041860;28;20442;-70
2023/03/29 00:10:50;;;;;;;3.93;2.70;;;;;;;10.98;54.76;97795.13;5037774;28;20422;-70
2023/03/29 00:13:17;;;;;;;3.40;2.43;;;;;;;10.92;55.25;97806.16;5044454;28;20457;-70
2023/03/29 00:15:42;;;;;;;5.07;2.57;;;;;;;10.90;55.37;97803.69;5045513;28;20454;-70
2023/03/29 00:18:08;;;;;;;4.70;2.90;;;;;;;10.78;55.73;97802.19;5044982;28;20444;-70
2023/03/29 00:20:35;;;;;;;5.50;2.90;;;;;;;10.68;56.10;97804.00;5046216;28;20342;-70
2023/03/29 00:23:00;;;;;;;7.93;2.97;;;;;;;10.72;55.82;97792.25;5038686;28;20652;-69
2023/03/29 00:25:26;;;;;;;4.40;2.87;;;;;;;10.70;55.95;97796.81;5045019;28;20440;-70
2023/03/29 00:27:51;;;;;;;3.07;2.80;;;;;;;10.38;57.58;97788.25;5045281;28;20194;-71
2023/03/29 00:30:17;;;;;;;4.03;3.00;;;;;;;10.39;57.36;97783.84;5052709;28;20535;-70
2023/03/29 00:32:43;;;;;;;2.90;2.70;;;;;;;10.33;55.38;97779.13;5050063;28;20186;-70
2023/03/29 00:35:08;;;;;;;2.60;2.40;;;;;;;10.35;55.36;97782.41;5045281;28;20558;-70
2023/03/29 00:37:34;;;;;;;4.50;2.70;;;;;;;10.29;53.84;97768.06;5041654;28;20204;-70
2023/03/29 00:39:59;;;;;;;3.27;2.60;;;;;;;10.32;54.54;97772.22;5040963;28;20203;-70
2023/03/29 00:42:25;;;;;;;5.30;3.40;;;;;;;10.35;53.65;97767.53;5044201;28;20183;-70
2023/03/29 00:45:12;;;;;;;4.57;2.67;;;;;;;10.29;54.26;97761.06;5031523;28;20541;-70
2023/03/29 00:47:50;;;;;;;2.90;2.53;;;;;;;10.27;54.23;97759.53;5049413;28;20553;-70
2023/03/29 00:50:24;;;;;;;4.70;2.87;;;;;;;10.27;54.26;97765.59;5047634;28;20436;-71
2023/03/29 00:53:11;;;;;;;3.00;2.73;;;;;;;10.26;54.59;97758.69;5057409;28;20433;-69
2023/03/29 00:55:43;;;;;;;3.50;3.20;;;;;;;10.35;53.76;97762.28;5047569;28;20467;-70
2023/03/29 00:58:11;;;;;;;4.87;2.73;;;;;;;10.24;54.04;97760.63;5044033;28;20480;-71
2023/03/29 01:00:46;;;;;;;3.10;2.80;;;;;;;10.19;54.37;97754.97;5052826;28;20408;-71
2023/03/29 01:03:13;;;;;;;4.33;2.80;;;;;;;10.27;54.66;97755.13;5045405;28;20417;-71
2023/03/29 01:05:46;;;;;;;4.53;3.10;;;;;;;10.23;54.97;97758.97;5050888;28;20450;-71
2023/03/29 01:08:17;;;;;;;7.07;3.00;;;;;;;10.22;54.76;97756.50;5040830;28;20450;-71
2023/03/29 01:10:47;;;;;;;3.23;2.77;;;;;;;10.18;55.11;97749.88;5049310;28;20418;-71
2023/03/29 01:13:18;;;;;;;4.60;2.80;;;;;;;10.21;54.66;97739.94;5049057;28;20410;-70
2023/03/29 01:15:44;;;;;;;5.40;3.53;;;;;;;10.26;54.94;97727.25;5048404;28;20456;-70
2023/03/29 01:18:10;;;;;;;3.47;3.03;;;;;;;10.36;54.74;97723.81;5055105;28;20438;-71
2023/03/29 01:20:45;;;;;;;3.20;2.60;;;;;;;10.50;54.65;97720.00;5050980;28;20475;-70
2023/03/29 01:23:20;;;;;;;5.03;3.00;;;;;;;10.53;53.71;97722.31;5036386;28;20873;-71
2023/03/29 01:26:01;;;;;;;8.33;3.20;;;;;;;10.43;54.24;97717.91;5053800;28;20762;-69
2023/03/29 01:28:34;;;;;;;10.10;2.73;;;;;;;10.27;54.19;97715.81;5050574;28;20550;-70
2023/03/29 01:31:02;;;;;;;3.90;2.90;;;;;;;10.12;54.74;97719.81;5047369;28;20441;-70
2023/03/29 01:33:31;;;;;;;5.23;2.57;;;;;;;10.16;54.82;97713.34;5053917;28;20452;-71
2023/03/29 01:36:06;;;;;;;6.23;3.20;;;;;;;10.14;54.73;97712.66;5045709;28;20517;-70
2023/03/29 01:38:48;;;;;;;3.57;2.70;;;;;;;10.15;54.67;97709.88;5038963;28;21153;-69
2023/03/29 01:41:13;;;;;;;4.63;2.60;;;;;;;10.19;55.05;97702.59;5042580;28;20430;-70
2023/03/29 01:43:50;;;;;;;3.77;2.80;;;;;;;10.19;55.10;97701.75;5047085;28;20482;-71
2023/03/29 01:46:31;;;;;;;3.07;2.80;;;;;;;10.16;55.66;97700.25;5040963;28;20191;-69
2023/03/29 01:49:00;;;;;;;3.33;2.70;;;;;;;10.09;55.92;97688.63;5055933;28;20448;-70
2023/03/29 01:51:34;;;;;;;3.73;2.80;;;;;;;10.03;55.93;97687.41;5055941;28;20918;-69
2023/03/29 01:54:10;;;;;;;5.03;2.90;;;;;;;10.11;55.93;97677.09;5045833;28;20503;-71
2023/03/29 01:56:38;;;;;;;3.50;2.97;;;;;;;9.95;56.01;97675.03;5034819;28;20451;-71
2023/03/29 01:59:08;;;;;;;3.40;2.87;;;;;;;9.95;56.51;97667.16;5037955;28;20445;-68
2023/03/29 02:01:37;;;;;;;3.13;2.80;;;;;;;9.88;56.72;97655.56;5034314;28;20401;-71
2023/03/29 02:04:09;;;;;;;3.67;2.93;;;;;;;9.82;56.86;97645.66;5050852;28;20421;-70
2023/03/29 02:06:36;;;;;;;3.93;3.03;;;;;;;9.83;56.47;97648.13;5036038;28;20627;-70
2023/03/29 02:09:04;;;;;;;5.10;3.13;;;;;;;9.82;57.26;97651.69;5050809;28;20452;-69
2023/03/29 02:11:29;;;;;;;4.87;2.93;;;;;;;9.82;56.76;97656.13;5047556;28;20915;-70
2023/03/29 02:13:56;;;;;;;4.60;2.90;;;;;;;9.68;57.10;97646.88;5041116;28;20422;-69
2023/03/29 02:16:21;;;;;;;4.00;3.47;;;;;;;9.58;57.56;97644.22;5034766;28;20188;-70
2023/03/29 02:18:48;;;;;;;4.00;3.60;;;;;;;9.59;57.91;97634.59;5047408;28;20448;-68
2023/03/29 02:21:29;;;;;;;4.60;3.00;;;;;;;9.66;58.01;97633.94;5047803;28;20212;-69
2023/03/29 02:23:58;;;;;;;3.80;3.07;;;;;;;9.72;57.69;97639.56;5056051;28;20412;-69
2023/03/29 02:26:24;;;;;;;3.33;3.00;;;;;;;9.87;56.89;97638.19;5039905;28;20422;-71
2023/03/29 02:28:50;;;;;;;6.83;2.70;;;;;;;9.91;56.50;97629.13;5046960;28;20475;-69
2023/03/29 02:31:25;;;;;;;4.83;2.37;;;;;;;9.86;56.67;97620.84;5045758;28;20199;-70
2023/03/29 02:34:06;;;;;;;4.77;2.30;;;;;;;9.93;56.16;97632.44;5040876;28;20414;-69
2023/03/29 02:36:32;;;;;;;3.80;2.60;;;;;;;9.96;55.62;97634.75;5046066;28;20449;-70
2023/03/29 02:38:59;;;;;;;3.40;2.50;;;;;;;10.02;55.90;97636.00;5048088;28;20437;-70
2023/03/29 02:41:25;;;;;;;5.17;2.53;;;;;;;10.12;55.69;97621.13;5035119;28;20196;-68
2023/03/29 02:43:51;;;;;;;3.60;2.40;;;;;;;10.17;55.62;97628.56;5051907;28;20430;-69
2023/03/29 02:46:17;;;;;;;3.10;2.80;;;;;;;10.19;55.60;97636.25;5049788;28;20410;-69
2023/03/29 02:48:45;;;;;;;2.53;2.33;;;;;;;10.19;55.50;97618.78;5048872;28;20234;-69
2023/03/29 02:51:16;;;;;;;3.33;2.73;;;;;;;10.05;55.54;97606.91;5050333;28;20466;-70
2023/03/29 02:53:46;;;;;;;5.77;3.70;;;;;;;9.99;55.51;97607.47;5044080;28;20824;-70
2023/03/29 02:56:12;;;;;;;4.07;2.77;;;;;;;9.94;55.75;97602.66;5050089;28;20465;-69
2023/03/29 02:58:37;;;;;;;2.80;2.60;;;;;;;9.88;55.72;97587.50;5056340;28;21306;-70
2023/03/29 03:01:05;;;;;;;4.17;2.90;;;;;;;9.86;55.64;97591.22;5058929;28;20515;-70
2023/03/29 03:03:31;;;;;;;4.43;2.60;;;;;;;9.95;55.87;97586.00;5052108;28;20193;-69
2023/03/29 03:05:56;;;;;;;3.23;2.93;;;;;;;9.94;56.26;97583.50;5051865;28;20417;-70
2023/03/29 03:08:22;;;;;;;3.07;2.77;;;;;;;9.70;56.20;97574.28;5041159;28;20200;-69
2023/03/29 03:10:47;;;;;;;3.20;2.90;;;;;;;9.73;56.13;97586.25;5049994;28;20188;-70
2023/03/29 03:13:13;;;;;;;6.17;2.70;;;;;;;9.75;56.13;97584.31;5051359;28;20183;-70
2023/03/29 03:15:41;;;;;;;4.17;2.60;;;;;;;9.85;55.47;97590.38;5054213;28;20440;-70
2023/03/29 03:18:08;;;;;;;3.60;2.90;;;;;;;9.92;55.23;97588.88;5051049;28;20275;-69
2023/03/29 03:20:34;;;;;;;3.30;2.97;;;;;;;9.96;55.04;97592.84;5049567;28;20429;-70
2023/03/29 03:23:02;;;;;;;2.73;2.50;;;;;;;10.07;54.71;97598.94;5059129;28;20938;-70
2023/03/29 03:25:28;;;;;;;3.20;2.90;;;;;;;10.03;54.80;97589.69;5050676;28;20187;-70
2023/03/29 03:27:53;;;;;;;4.67;2.63;;;;;;;10.03;54.69;97590.50;5054548;28;20438;-70
2023/03/29 03:30:19;;;;;;;2.80;2.60;;;;;;;10.09;54.51;97589.13;5058379;28;20480;-70
2023/03/29 03:32:45;;;;;;;6.50;3.10;;;;;;;10.11;54.16;97584.56;5048343;28;20815;-70
2023/03/29 03:35:11;;;;;;;2.70;2.50;;;;;;;10.17;53.88;97581.41;5066933;28;20182;-71
2023/03/29 03:37:37;;;;;;;4.10;2.97;;;;;;;10.23;53.84;97586.06;5049506;28;20485;-69
2023/03/29 03:40:07;;;;;;;3.80;2.53;;;;;;;10.27;54.02;97582.22;5034370;28;20454;-71
2023/03/29 03:42:33;;;;;;;2.80;2.60;;;;;;;10.23;53.54;97569.53;5045286;28;21044;-70
2023/03/29 03:44:58;;;;;;;3.70;2.80;;;;;;;10.15;53.74;97575.47;5041540;28;20417;-69
2023/03/29 03:47:24;;;;;;;6.57;3.23;;;;;;;10.21;54.30;97576.72;5041994;28;20274;-69
2023/03/29 03:49:50;;;;;;;4.27;2.60;;;;;;;10.28;54.82;97578.63;5049727;28;20234;-70
2023/03/29 03:52:16;;;;;;;3.23;2.93;;;;;;;10.31;55.08;97577.50;5040368;28;20176;-69
2023/03/29 03:54:42;;;;;;;3.43;2.97;;;;;;;10.36;55.56;97584.94;5044394;28;20415;-70
2023/03/29 03:57:08;;;;;;;3.37;2.63;;;;;;;10.38;55.16;97589.13;5038151;28;20464;-71
2023/03/29 03:59:33;;;;;;;6.10;3.00;;;;;;;10.39;55.13;97592.56;5040472;28;22671;-68
2023/03/29 04:01:59;;;;;;;3.30;2.83;;;;;;;10.40;54.94;97589.78;5038328;28;20226;-70
2023/03/29 04:04:25;;;;;;;5.40;3.23;;;;;;;10.38;54.67;97596.16;5044035;28;20183;-70
2023/03/29 04:06:50;;;;;;;2.53;2.33;;;;;;;10.43;53.86;97591.31;5042834;28;20614;-69
2023/03/29 04:09:16;;;;;;;3.40;2.50;;;;;;;10.48;53.80;97596.13;5042176;28;20444;-70
2023/03/29 04:11:42;;;;;;;2.43;2.23;;;;;;;10.50;53.31;97595.00;5040746;28;20270;-70
2023/03/29 04:14:08;;;;;;;3.97;2.77;;;;;;;10.59;52.53;97595.97;5048351;28;20509;-72
2023/03/29 04:16:33;;;;;;;3.93;2.33;;;;;;;10.62;53.48;97594.84;5044771;28;20293;-68
2023/03/29 04:18:59;;;;;;;4.37;3.07;;;;;;;10.64;54.02;97593.75;5039189;28;20205;-71
2023/03/29 04:21:25;;;;;;;4.43;3.10;;;;;;;10.67;53.89;97593.44;5045442;28;20179;-69
2023/03/29 04:23:50;;;;;;;5.70;3.13;;;;;;;10.67;54.26;97592.63;5042052;28;20703;-69
2023/03/29 04:26:16;;;;;;;4.13;3.40;;;;;;;10.72;54.63;97590.38;5037210;28;20551;-69
2023/03/29 04:28:42;;;;;;;4.33;3.00;;;;;;;10.64;55.49;97596.38;5041524;28;20255;-70
2023/03/29 04:31:10;;;;;;;4.37;2.63;;;;;;;10.64;55.79;97599.00;5035664;28;20556;-70
2023/03/29 04:33:36;;;;;;;5.07;3.13;;;;;;;10.55;55.92;97597.19;5045295;28;20454;-70
2023/03/29 04:36:02;;;;;;;4.90;3.07;;;;;;;10.48;56.40;97602.19;5039143;28;20455;-71
2023/03/29 04:38:27;;;;;;;7.47;4.10;;;;;;;10.51;55.93;97596.66;5045057;28;20226;-69
2023/03/29 04:40:54;;;;;;;4.03;3.60;;;;;;;10.58;55.81;97599.53;5046023;28;20749;-70
2023/03/29 04:43:19;;;;;;;3.77;3.23;;;;;;;10.62;54.73;97600.06;5057596;28;20183;-71
2023/03/29 04:45:44;;;;;;;3.83;3.00;;;;;;;10.56;54.96;97597.06;5037381;28;20441;-70
2023/03/29 04:48:10;;;;;;;5.47;3.30;;;;;;;10.63;54.63;97596.50;5043830;28;20199;-69
2023/03/29 04:50:35;;;;;;;4.77;3.10;;;;;;;10.65;54.32;97586.69;5045683;28;20183;-69
2023/03/29 04:53:01;;;;;;;12.47;7.80;;;;;;;10.64;54.47;97592.91;5032903;28;20184;-68
2023/03/29 04:55:26;;;;;;;11.83;6.10;;;;;;;10.73;53.91;97592.03;5046097;28;20183;-70
2023/03/29 04:57:54;;;;;;;4.50;3.70;;;;;;;10.77;52.14;97588.16;5037419;28;20178;-70
2023/03/29 05:00:25;;;;;;;6.43;4.83;;;;;;;10.80;52.39;97587.03;5046055;28;20183;-70
2023/03/29 05:02:51;;;;;;;16.17;9.50;;;;;;;10.84;53.65;97586.59;5045357;28;20963;-70
2023/03/29 05:05:16;;;;;;;14.87;6.80;;;;;;;10.86;53.15;97596.97;5037972;28;20510;-70
2023/03/29 05:07:43;;;;;;;10.57;6.10;;;;;;;10.81;54.13;97592.16;5037640;28;20270;-71
2023/03/29 05:10:08;;;;;;;9.20;5.67;;;;;;;10.82;54.70;97588.56;5033541;28;20288;-69
2023/03/29 05:12:34;;;;;;;10.33;6.43;;;;;;;10.84;55.23;97591.84;5039425;28;20860;-70
2023/03/29 05:15:00;;;;;;;4.77;3.40;;;;;;;10.84;53.35;97588.41;5047944;28;20562;-70
2023/03/29 05:17:26;;;;;;;5.50;3.60;;;;;;;10.85;52.07;97588.25;5037892;28;20231;-69
2023/03/29 05:19:53;;;;;;;7.67;5.27;;;;;;;10.89;53.14;97592.25;5039107;28;20234;-71
2023/03/29 05:22:19;;;;;;;7.57;4.80;;;;;;;10.88;54.35;97595.03;5034489;28;20422;-70
2023/03/29 05:24:44;;;;;;;9.70;5.17;;;;;;;10.90;54.30;97599.16;5043716;28;20495;-72
2023/03/29 05:27:10;;;;;;;9.70;4.47;;;;;;;10.96;53.83;97599.56;5054515;28;20875;-70
2023/03/29 05:29:36;;;;;;;11.90;4.07;;;;;;;11.00;53.52;97599.13;5039211;28;20195;-70
2023/03/29 05:32:01;;;;;;;7.30;3.23;;;;;;;11.01;53.11;97597.31;5033943;28;20802;-69
2023/03/29 05:34:27;;;;;;;4.50;3.30;;;;;;;11.01;54.10;97594.69;5043904;28;20236;-70
2023/03/29 05:36:52;;;;;;;4.60;2.90;;;;;;;11.05;53.35;97596.88;5031582;28;20196;-70
2023/03/29 05:39:18;;;;;;;3.63;2.53;;;;;;;11.02;52.51;97594.56;5035265;28;20809;-72
2023/03/29 05:41:44;;;;;;;8.20;2.63;;;;;;;11.02;52.31;97591.09;5043595;28;20200;-72
2023/03/29 05:44:10;;;;;;;3.83;2.10;;;;;;;10.98;50.88;97589.72;5043801;28;20184;-71
2023/03/29 05:46:35;;;;;;;4.67;2.60;;;;;;;10.96;50.44;97591.69;5044128;28;20560;-72
2023/03/29 05:49:01;;;;;;;6.77;3.00;;;;;;;11.02;49.92;97594.56;5031829;28;20978;-69
2023/03/29 05:51:27;;;;;;;4.07;2.13;;;;;;;11.05;49.26;97590.81;5045431;28;20636;-71
2023/03/29 05:53:52;;;;;;;2.90;2.60;;;;;;;11.09;48.91;97589.53;5036007;28;20213;-71
2023/03/29 05:56:18;;;;;;;3.20;2.90;;;;;;;11.12;48.69;97597.09;5048602;28;20698;-70
2023/03/29 05:58:45;;;;;;;6.40;3.07;;;;;;;11.17;48.24;97589.63;5048227;28;20276;-70
2023/03/29 06:01:12;;;;;;;3.20;2.80;;;;;;;11.16;48.42;97598.47;5055927;28;20182;-70
2023/03/29 06:03:38;;;;;;;5.00;2.90;;;;;;;11.22;48.13;97595.25;5040726;28;20432;-70
2023/03/29 06:06:04;;;;;;;5.37;2.77;;;;;;;11.27;47.49;97597.47;5048707;28;20442;-70
2023/03/29 06:08:30;;;;;;;8.00;2.70;;;;;;;11.27;47.90;97594.00;5040409;28;20248;-70
2023/03/29 06:10:58;;;;;;;4.13;3.03;;;;;;;11.31;47.87;97587.50;5045993;28;20687;-72
2023/03/29 06:13:23;;;;;;;4.43;2.90;;;;;;;11.40;47.58;97589.22;5048080;28;20422;-70
2023/03/29 06:15:49;;;;;;;3.20;2.03;;;;;;;11.41;47.49;97597.91;5047202;28;20453;-71
2023/03/29 06:18:14;;;;;;;5.47;2.20;;;;;;;11.45;47.08;97592.25;5034760;28;20204;-71
2023/03/29 06:20:40;;;;;;;4.63;2.17;;;;;;;11.47;46.99;97590.25;5043624;28;20189;-71
2023/03/29 06:23:06;;;;;;;8.50;1.97;;;;;;;11.49;46.79;97580.44;5035625;28;20187;-71
2023/03/29 06:25:32;;;;;;;3.97;1.90;;;;;;;11.60;46.65;97576.78;5038106;28;20190;-70
2023/03/29 06:27:58;;;;;;;4.37;2.30;;;;;;;11.65;48.23;97571.94;5044784;28;20820;-71
2023/03/29 06:30:23;;;;;;;5.23;3.00;;;;;;;11.72;49.43;97579.19;5029821;28;20427;-70
2023/03/29 06:32:49;;;;;;;2.43;1.80;;;;;;;11.77;48.06;97590.06;5040540;28;20175;-69
2023/03/29 06:35:15;;;;;;;6.13;1.87;;;;;;;11.81;47.85;97592.25;5038838;28;20229;-69
2023/03/29 06:37:48;;;;;;;3.93;1.93;;;;;;;11.88;47.88;97597.72;5030284;28;20205;-69
2023/03/29 06:40:23;;;;;;;3.60;1.97;;;;;;;11.98;47.24;97608.16;5042103;28;20431;-71
2023/03/29 06:42:49;;;;;;;4.30;1.70;;;;;;;12.03;46.99;97605.09;5028192;28;20422;-70
2023/03/29 06:45:15;;;;;;;3.30;2.00;;;;;;;12.03;46.34;97605.91;5039203;28;20874;-70
2023/03/29 06:47:41;;;;;;;5.17;1.90;;;;;;;12.12;46.43;97609.44;5035858;28;20495;-70
2023/03/29 06:50:07;;;;;;;5.33;2.27;;;;;;;12.13;45.99;97611.91;5040029;28;20863;-71
2023/03/29 06:52:33;;;;;;;5.37;2.07;;;;;;;12.21;46.01;97612.97;5031466;28;20215;-69
2023/03/29 06:55:00;;;;;;;3.00;1.70;;;;;;;12.27;46.10;97612.34;5047642;28;21193;-70
2023/03/29 06:57:26;;;;;;;3.73;1.60;;;;;;;12.30;45.79;97619.91;5047061;28;20544;-69
2023/03/29 06:59:52;;;;;;;4.70;2.80;;;;;;;12.35;45.80;97625.53;5040026;28;20524;-69
2023/03/29 07:02:18;;;;;;;4.00;2.03;;;;;;;12.43;45.54;97633.50;5052036;28;20882;-70
2023/03/29 07:04:44;;;;;;;2.80;2.00;;;;;;;12.44;45.96;97626.41;5054706;28;20421;-71
2023/03/29 07:07:18;;;;;;;8.47;2.00;;;;;;;12.48;45.69;97629.56;5039787;28;20271;-72
2023/03/29 07:09:45;;;;;;;3.57;2.33;;;;;;;12.54;45.22;97623.69;5043411;28;20249;-69
2023/03/29 07:12:11;;;;;;;2.33;2.10;;;;;;;12.54;45.76;97624.50;5047475;28;20449;-70
2023/03/29 07:14:36;;;;;;;6.60;2.57;;;;;;;12.58;45.44;97622.41;5053400;28;20460;-71
2023/03/29 07:17:02;;;;;;;4.03;1.97;;;;;;;12.65;45.74;97620.81;5047771;28;20225;-71
2023/03/29 07:19:29;;;;;;;2.17;1.67;;;;;;;12.67;45.53;97620.63;5044956;28;20202;-69
2023/03/29 07:21:55;;;;;;;7.23;2.40;;;;;;;12.67;45.42;97623.25;5051609;28;20471;-70
2023/03/29 07:24:21;;;;;;;5.50;2.10;;;;;;;12.68;45.64;97625.75;5048320;28;20423;-70
2023/03/29 07:26:51;;;;;;;8.97;2.27;;;;;;;12.75;45.34;97629.41;5042113;28;20167;-70
2023/03/29 07:29:16;;;;;;;3.40;1.90;;;;;;;12.82;45.20;97626.16;5051320;28;20207;-69
2023/03/29 07:31:43;;;;;;;3.30;1.70;;;;;;;12.87;45.11;97634.41;5047636;28;20460;-70
2023/03/29 07:34:09;;;;;;;3.57;2.27;;;;;;;12.89;45.22;97637.69;5052086;28;20322;-70
2023/03/29 07:36:38;;;;;;;13.50;2.23;;;;;;;12.90;45.37;97645.44;5050685;28;20476;-71
2023/03/29 07:39:05;;;;;;;8.00;2.30;;;;;;;12.97;45.69;97648.28;5054892;28;20467;-72
2023/03/29 07:41:30;;;;;;;5.70;2.20;;;;;;;13.02;45.15;97648.63;5055882;28;20425;-70
2023/03/29 07:43:56;;;;;;;2.60;1.80;;;;;;;13.11;44.98;97654.75;5053137;28;20414;-70
2023/03/29 07:46:22;;;;;;;8.00;1.73;;;;;;;13.16;44.82;97654.28;5051013;28;20178;-70
2023/03/29 07:48:47;;;;;;;4.27;1.70;;;;;;;13.17;45.00;97653.28;5049842;28;20212;-71
2023/03/29 07:51:13;;;;;;;3.83;1.90;;;;;;;13.16;44.71;97662.16;5057525;28;20257;-71
2023/03/29 07:53:38;;;;;;;7.07;1.83;;;;;;;13.18;44.47;97661.03;5055366;28;20186;-70
2023/03/29 07:56:04;;;;;;;5.27;1.83;;;;;;;13.20;44.80;97655.63;5057477;28;20203;-71
2023/03/29 07:58:29;;;;;;;3.20;1.80;;;;;;;13.24;44.79;97662.19;5059987;28;20206;-69
2023/03/29 08:00:55;;;;;;;8.53;1.70;;;;;;;13.24;44.82;97662.19;5054523;28;20213;-70
2023/03/29 08:03:20;;;;;;;3.80;2.23;;;;;;;13.33;44.53;97655.16;5050942;28;20176;-72
2023/03/29 08:05:46;;;;;;;5.67;1.67;;;;;;;13.37;44.25;97651.25;5054595;28;20273;-71
2023/03/29 08:08:12;;;;;;;2.70;2.13;;;;;;;13.44;44.63;97652.28;5046246;28;20195;-70
2023/03/29 08:10:38;;;;;;;4.10;2.13;;;;;;;13.51;44.55;97647.19;5049846;28;20588;-71
2023/03/29 08:13:08;;;;;;;3.23;1.80;;;;;;;13.61;44.56;97642.59;5040631;28;20560;-69
2023/03/29 08:15:36;;;;;;;6.57;1.73;;;;;;;13.72;44.82;97648.56;5041867;28;20179;-70
2023/03/29 08:18:02;;;;;;;3.00;2.03;;;;;;;13.80;44.52;97646.75;5040880;28;20789;-70
2023/03/29 08:20:27;;;;;;;6.33;2.10;;;;;;;13.81;43.08;97651.03;5055287;28;20436;-70
2023/03/29 08:22:53;;;;;;;3.93;1.73;;;;;;;13.88;43.09;97651.22;5042268;28;20269;-70
2023/03/29 08:25:18;;;;;;;5.20;1.83;;;;;;;13.92;42.59;97649.91;5041708;28;20195;-69
2023/03/29 08:27:44;;;;;;;2.43;1.87;;;;;;;13.90;42.54;97649.25;5037919;28;20211;-70
2023/03/29 08:30:10;;;;;;;3.67;2.10;;;;;;;13.86;42.70;97645.28;5049121;28;20230;-71
2023/03/29 08:32:36;;;;;;;3.80;1.67;;;;;;;13.87;42.51;97646.94;5034639;28;20187;-70
2023/03/29 08:35:03;;;;;;;4.87;2.13;;;;;;;13.90;42.27;97643.97;5039102;28;20190;-71
2023/03/29 08:37:30;;;;;;;3.07;1.77;;;;;;;13.89;41.85;97652.88;5036762;28;20466;-70
2023/03/29 08:39:56;;;;;;;4.67;2.17;;;;;;;13.81;42.14;97653.69;5039665;28;20528;-71
2023/03/29 08:42:30;;;;;;;2.37;1.57;;;;;;;13.82;42.92;97649.25;5041695;28;20432;-70
2023/03/29 08:45:06;;;;;;;3.23;1.83;;;;;;;13.88;43.19;97651.22;5038587;28;20183;-69
2023/03/29 08:47:55;;;;;;;2.83;1.80;;;;;;;13.89;43.00;97652.88;5041916;28;20440;-70
2023/03/29 08:50:37;;;;;;;3.83;1.70;;;;;;;13.86;43.69;97649.75;5058517;28;20539;-70
2023/03/29 08:53:06;;;;;;;2.13;1.67;;;;;;;13.90;43.74;97653.72;5034789;28;20414;-70
2023/03/29 08:55:39;;;;;;;1.70;1.60;;;;;;;13.85;44.00;97648.94;5033267;28;20963;-70
2023/03/29 08:58:07;;;;;;;4.27;2.20;;;;;;;13.92;43.73;97639.38;5035156;28;20429;-71
2023/03/29 09:00:38;;;;;;;5.33;1.60;;;;;;;13.95;43.37;97633.78;5033989;28;20426;-70
2023/03/29 09:03:29;;;;;;;3.43;3.03;;;;;;;13.81;43.46;97640.50;5030015;28;20431;-71
2023/03/29 09:06:06;;;;;;;3.00;2.10;;;;;;;13.86;42.98;97640.00;5039462;28;20437;-72
2023/03/29 09:08:37;;;;;;;5.57;2.40;;;;;;;13.88;42.77;97637.25;5053608;28;20484;-70
2023/03/29 09:11:24;;;;;;;4.43;2.37;;;;;;;14.04;42.65;97646.97;5040523;28;20437;-68
2023/03/29 09:14:21;;;;;;;5.80;2.20;;;;;;;14.13;42.45;97636.28;5038495;28;20422;-69
2023/03/29 09:17:00;;;;;;;2.80;2.00;;;;;;;14.10;41.09;97636.59;5045109;28;20580;-70
2023/03/29 09:19:46;;;;;;;3.10;2.30;;;;;;;14.26;41.69;97630.50;5028051;28;20464;-71
2023/03/29 09:22:17;;;;;;;3.27;2.00;;;;;;;14.38;41.08;97627.50;5016348;28;20441;-69
2023/03/29 09:25:23;;;;;;;2.83;1.83;;;;;;;14.53;40.98;97627.69;5041169;28;20430;-70
2023/03/29 09:27:50;;;;;;;2.97;1.87;;;;;;;14.57;40.03;97627.19;5043246;28;20422;-69
2023/03/29 09:30:35;;;;;;;3.63;1.70;;;;;;;14.62;39.14;97624.03;5042152;28;20449;-70
2023/03/29 09:33:06;;;;;;;2.27;1.80;;;;;;;14.67;38.94;97621.75;5032236;28;20513;-69
2023/03/29 09:35:38;;;;;;;3.90;2.10;;;;;;;14.74;39.11;97614.00;5042799;28;20439;-69
2023/03/29 09:38:05;;;;;;;3.53;2.13;;;;;;;14.87;39.04;97611.63;5036499;28;20485;-70
2023/03/29 09:40:44;;;;;;;1.80;1.70;;;;;;;14.98;38.76;97607.00;5036167;28;20445;-70
2023/03/29 09:43:13;;;;;;;4.70;2.00;;;;;;;15.13;38.68;97607.91;5045666;28;20422;-69
2023/03/29 09:45:38;;;;;;;4.57;2.47;;;;;;;15.23;38.65;97604.25;5043627;28;20850;-69
2023/03/29 09:48:13;;;;;;;3.67;1.77;;;;;;;15.29;38.55;97596.47;5035053;28;20504;-69
2023/03/29 09:50:45;;;;;;;2.23;1.50;;;;;;;15.39;38.05;97603.34;5038749;28;20220;-70
2023/03/29 09:53:13;;;;;;;3.00;1.67;;;;;;;15.58;38.19;97602.88;5038692;28;20524;-69
2023/03/29 09:55:39;;;;;;;15.33;2.10;;;;;;;15.68;38.12;97594.75;5035769;28;20426;-70
2023/03/29 09:58:14;;;;;;;2.73;1.80;;;;;;;15.77;37.12;97593.69;5044970;28;20905;-70
2023/03/29 10:00:39;;;;;;;3.43;2.10;;;;;;;15.75;36.71;97600.97;5043635;28;20418;-69
2023/03/29 10:03:05;;;;;;;6.93;2.00;;;;;;;15.88;36.69;97604.91;5039371;28;20429;-69
2023/03/29 10:05:35;;;;;;;2.23;1.60;;;;;;;16.00;36.31;97600.84;5038993;28;20187;-71
2023/03/29 10:08:17;;;;;;;3.07;1.93;;;;;;;16.12;36.49;97603.88;5034543;28;20191;-71
2023/03/29 10:10:42;;;;;;;4.53;2.00;;;;;;;16.31;36.27;97599.09;5042345;28;20585;-71
2023/03/29 10:13:13;;;;;;;5.00;1.80;;;;;;;16.46;35.45;97596.47;5049082;28;20660;-70
2023/03/29 10:15:39;;;;;;;3.53;1.90;;;;;;;16.50;34.85;97589.81;5044709;28;20184;-72
2023/03/29 10:18:09;;;;;;;3.80;1.90;;;;;;;16.55;34.66;97588.28;5044482;28;20436;-71
2023/03/29 10:20:36;;;;;;;3.00;1.83;;;;;;;16.71;35.06;97586.44;5046026;28;20727;-70
2023/03/29 10:23:05;;;;;;;2.97;1.97;;;;;;;16.43;34.38;97603.75;5039371;28;20428;-72
2023/03/29 10:25:34;;;;;;;1.90;1.33;;;;;;;16.61;35.05;97599.13;5044825;28;20456;-72
2023/03/29 10:28:10;;;;;;;1.93;1.73;;;;;;;16.74;34.54;97597.50;5034681;28;20454;-71
2023/03/29 10:30:37;;;;;;;2.83;1.50;;;;;;;16.99;34.60;97584.03;5021180;28;20529;-71
2023/03/29 10:33:03;;;;;;;3.20;1.83;;;;;;;17.29;35.05;97589.25;5039251;28;20491;-70
2023/03/29 10:35:33;;;;;;;2.07;1.87;;;;;;;17.59;34.80;97591.84;5047029;28;20429;-71
2023/03/29 10:38:02;;;;;;;2.30;1.73;;;;;;;18.05;33.13;97582.72;5041155;28;20608;-70
2023/03/29 10:40:30;;;;;;;3.73;2.00;;;;;;;18.66;32.65;97575.19;5037306;28;20456;-71
2023/03/29 10:43:20;;;;;;;1.53;1.43;;;;;;;19.23;32.19;97577.75;5039820;28;20417;-71
2023/03/29 10:45:50;;;;;;;2.50;1.87;;;;;;;19.59;30.89;97560.66;5043227;28;20911;-71
2023/03/29 10:48:16;;;;;;;6.57;4.97;;;;;;;19.87;30.91;97554.41;5037072;28;20422;-71
2023/03/29 10:50:48;;;;;;;4.03;2.60;;;;;;;20.07;30.53;97541.91;5040055;28;20802;-71
2023/03/29 10:53:19;;;;;;;2.20;1.83;;;;;;;20.08;30.14;97553.41;5036029;28;20432;-71
2023/03/29 10:56:08;;;;;;;3.97;1.90;;;;;;;19.88;30.30;97558.69;5046716;28;20890;-70
2023/03/29 10:59:04;;;;;;;2.53;1.90;;;;;;;19.78;30.18;97557.22;5044829;28;20441;-72
2023/03/29 11:01:47;;;;;;;3.10;1.83;;;;;;;19.59;30.68;97550.88;5042427;28;20417;-71
2023/03/29 11:04:43;;;;;;;2.47;1.77;;;;;;;19.56;30.83;97548.59;5046082;28;21082;-71
2023/03/29 11:07:33;;;;;;;2.40;1.50;;;;;;;19.35;31.20;97541.59;5037252;28;20425;-70
2023/03/29 11:10:17;;;;;;;1.60;1.50;;;;;;;19.36;31.81;97539.75;5041540;28;20475;-70
2023/03/29 11:12:55;;;;;;;2.43;1.60;;;;;;;19.22;32.00;97530.94;5040022;28;20744;-69
2023/03/29 11:15:45;;;;;;;5.93;4.33;;;;;;;19.31;32.20;97533.22;5040226;28;20521;-71
2023/03/29 11:18:53;;;;;;;5.10;2.27;;;;;;;19.25;32.28;97522.56;5041157;28;20428;-71
2023/03/29 11:21:52;;;;;;;5.10;3.87;;;;;;;19.19;32.43;97519.69;5038404;28;20870;-73
2023/03/29 11:24:26;;;;;;;6.40;3.37;;;;;;;19.13;32.74;97524.97;5043611;28;20437;-72
2023/03/29 11:27:04;;;;;;;3.13;2.83;;;;;;;19.33;32.64;97519.72;5046680;28;20456;-70
2023/03/29 11:30:01;;;;;;;4.50;2.07;;;;;;;19.57;31.31;97530.81;5034216;28;20457;-71
2023/03/29 11:32:40;;;;;;;4.40;1.60;;;;;;;19.88;31.16;97516.97;5040310;28;20509;-72
2023/03/29 11:35:28;;;;;;;5.03;1.43;;;;;;;20.40;30.93;97517.13;5036271;28;20421;-72
2023/03/29 11:38:19;;;;;;;3.70;1.90;;;;;;;20.38;30.51;97519.19;5043684;28;20457;-71
2023/03/29 11:40:51;;;;;;;9.50;1.90;;;;;;;20.50;30.28;97518.53;5035852;28;20430;-71
2023/03/29 11:43:26;;;;;;;6.13;1.60;;;;;;;20.65;29.90;97521.78;5042127;28;20442;-70
2023/03/29 11:45:55;;;;;;;1.93;1.47;;;;;;;20.44;29.36;97520.19;5039256;28;20422;-71